Valle Azzurra — ICEG — position and weather

sailwx.info

Track history (hours):
 
Tides and Currents Weather Stations Pressure Air Temp Water Temp Dewpoint Dewpoint Depression Visibility Wind Speed Wind Dir Waves Ship Positions

Valle Azzurra

Last reported at 2015-Feb-25 01:24 UTC. Time now 2015-Feb-27 04:06 UTC.
Position N 50°26' W 000°29'.

Length 183 m; draft 11.2 m.

Type: Tanker. MMSI: 247226600.

Date/timePositionNaut miles runAvg speedWind from/ knotsBaromVisibWave heightAir tempDewpointWater temp
2015-Feb-25 01:24N 50°26' W 000°29'8 9.1
2015-Feb-25 00:30N 50°29' W 000°17'2210.3
2015-Feb-24 22:20N 50°35' E 000°17'912.0
2015-Feb-24 21:33N 50°37' E 000°31'1212.3
2015-Feb-24 20:33N 50°43' E 000°48'1312.2
2015-Feb-24 19:31N 50°51' E 001°04'1111.6
2015-Feb-24 18:31N 50°59' E 001°17'1010.0
2015-Feb-24 17:33N 51°05' E 001°29'9 8.9
2015-Feb-24 16:33N 51°10' E 001°40'9 9.4
2015-Feb-24 15:33N 51°18' E 001°48'1111.1
2015-Feb-24 14:33N 51°28' E 001°57'1312.7
2015-Feb-24 13:33N 51°37' E 002°10'8011.0
2015-Feb-24 06:19N 52°32' E 003°45'7 8.9
2015-Feb-24 05:33N 52°32' E 003°56'9 9.3
2015-Feb-24 04:33N 52°31' E 004°11'9 9.2
2015-Feb-24 03:33N 52°29' E 004°26'6 6.5
2015-Feb-24 02:33N 52°28' E 004°37'2 1.6
2015-Feb-24 01:33N 52°28' E 004°39'4 4.3
2015-Feb-24 00:32N 52°25' E 004°45'0 0.0
2015-Feb-23 23:32N 52°25' E 004°45'0 0.0
2015-Feb-23 22:32N 52°25' E 004°45'0 0.0
2015-Feb-23 21:32N 52°25' E 004°45'0 0.0
2015-Feb-23 20:32N 52°25' E 004°45'0 0.0
2015-Feb-23 19:32N 52°25' E 004°45'0 0.0
2015-Feb-23 18:32N 52°25' E 004°45'0 0.0
2015-Feb-23 17:32N 52°25' E 004°45'0 0.0
2015-Feb-23 16:32N 52°25' E 004°45'0 0.0
2015-Feb-23 15:32N 52°25' E 004°45'0 0.0
2015-Feb-23 14:32N 52°25' E 004°45'0 0.0
2015-Feb-23 13:32N 52°25' E 004°45'0 0.0
2015-Feb-23 12:32N 52°25' E 004°45'0 0.0
2015-Feb-23 11:33N 52°25' E 004°45'0 0.0
2015-Feb-23 10:32N 52°25' E 004°45'0 0.0
2015-Feb-23 09:32N 52°25' E 004°45'0 0.0
2015-Feb-23 08:32N 52°25' E 004°45'0 0.0
2015-Feb-23 07:32N 52°25' E 004°45'0 0.0
2015-Feb-23 06:32N 52°25' E 004°45'0 0.0
2015-Feb-23 05:32N 52°25' E 004°45'0 0.0
2015-Feb-23 04:32N 52°25' E 004°45'0 0.0
2015-Feb-23 03:32N 52°25' E 004°45'0 0.0
2015-Feb-23 02:32N 52°25' E 004°45'0 0.0
2015-Feb-23 01:32N 52°25' E 004°45'0 0.0
2015-Feb-23 00:32N 52°25' E 004°45'0 0.0
2015-Feb-22 23:32N 52°25' E 004°45'0 0.0
2015-Feb-22 22:32N 52°25' E 004°45'0 0.0
2015-Feb-22 21:32N 52°25' E 004°45'0 0.0
2015-Feb-22 20:32N 52°25' E 004°45'0 0.4
2015-Feb-22 19:32N 52°25' E 004°45'0 0.0
2015-Feb-22 18:32N 52°25' E 004°45'0 0.0
2015-Feb-22 17:32N 52°25' E 004°45'0 0.0
2015-Feb-22 16:26N 52°25' E 004°45'0 0.0
2015-Feb-22 15:32N 52°25' E 004°45'0 0.0
2015-Feb-22 14:32N 52°25' E 004°45'0 0.0
2015-Feb-22 13:32N 52°25' E 004°45'0 0.0
2015-Feb-22 12:32N 52°25' E 004°45'0 0.0
2015-Feb-22 11:32N 52°25' E 004°45'0 0.0
2015-Feb-22 10:32N 52°25' E 004°45'0 0.0
2015-Feb-22 09:32N 52°25' E 004°45'0 0.0
2015-Feb-22 08:32N 52°25' E 004°45'0 0.0
2015-Feb-22 07:32N 52°25' E 004°45'0 0.0
2015-Feb-22 06:29N 52°25' E 004°45'0 0.0
2015-Feb-22 05:32N 52°25' E 004°45'0 0.0
2015-Feb-22 04:32N 52°25' E 004°45'0 0.0
2015-Feb-22 03:32N 52°25' E 004°45'0 0.0
2015-Feb-22 02:32N 52°25' E 004°45'0 0.0
2015-Feb-22 01:29N 52°25' E 004°45'0 0.0
2015-Feb-22 00:32N 52°25' E 004°45'0 0.0
2015-Feb-21 23:32N 52°25' E 004°45'0 0.0
2015-Feb-21 22:33N 52°25' E 004°45'0 0.0
2015-Feb-21 21:32N 52°25' E 004°45'0 0.0
2015-Feb-21 20:32N 52°25' E 004°45'0 0.0
2015-Feb-21 19:32N 52°25' E 004°45'0 0.0
2015-Feb-21 18:32N 52°25' E 004°45'0 0.0
2015-Feb-21 17:32N 52°25' E 004°45'0 0.0
2015-Feb-21 16:32N 52°25' E 004°45'0 0.0
2015-Feb-21 15:32N 52°25' E 004°45'0 0.0
2015-Feb-21 14:32N 52°25' E 004°45'0 0.0
2015-Feb-21 13:32N 52°25' E 004°45'0 0.0
2015-Feb-21 12:32N 52°25' E 004°45'0 0.0
2015-Feb-21 11:32N 52°25' E 004°45'0 0.0
2015-Feb-21 10:32N 52°25' E 004°45'0 0.0
2015-Feb-21 09:32N 52°25' E 004°45'0 0.0
2015-Feb-21 08:32N 52°25' E 004°45'0 0.0
2015-Feb-21 07:32N 52°25' E 004°45'0 0.0
2015-Feb-21 06:30N 52°25' E 004°45'0 0.0
2015-Feb-21 05:32N 52°25' E 004°45'0 0.0
2015-Feb-21 04:32N 52°25' E 004°45'0 0.0
2015-Feb-21 03:32N 52°25' E 004°45'0 0.0
2015-Feb-21 02:32N 52°25' E 004°45'0 0.0
2015-Feb-21 01:32N 52°25' E 004°45'0 0.0
2015-Feb-21 00:33N 52°25' E 004°45'0 0.0
2015-Feb-20 23:32N 52°25' E 004°45'0 0.0
2015-Feb-20 22:32N 52°25' E 004°45'0 0.0
2015-Feb-20 21:29N 52°25' E 004°45'0 0.0
2015-Feb-20 20:33N 52°25' E 004°45'0 0.0
2015-Feb-20 19:32N 52°25' E 004°45'0 0.0
2015-Feb-20 18:32N 52°25' E 004°45'0 0.0
2015-Feb-20 17:32N 52°25' E 004°45'0 0.0
2015-Feb-20 16:32N 52°25' E 004°45'0 0.0
2015-Feb-20 15:32N 52°25' E 004°45'0 0.0
2015-Feb-20 14:32N 52°25' E 004°45'0 0.0
2015-Feb-20 13:32N 52°25' E 004°45'0 0.0
2015-Feb-20 12:32N 52°25' E 004°45'0 0.0
2015-Feb-20 11:32N 52°25' E 004°45'0 0.0
2015-Feb-20 10:29N 52°25' E 004°45'0 0.0
2015-Feb-20 09:32N 52°25' E 004°45'0 0.0
2015-Feb-20 08:32N 52°25' E 004°45'0 0.0
2015-Feb-20 07:32N 52°25' E 004°45'0 0.0
2015-Feb-20 06:29N 52°25' E 004°45'0 0.0
2015-Feb-20 05:32N 52°25' E 004°45'0 0.0
2015-Feb-20 04:32N 52°25' E 004°45'0 0.0
2015-Feb-20 03:32N 52°25' E 004°45'0 0.0
2015-Feb-20 02:32N 52°25' E 004°45'0 0.0
2015-Feb-20 01:32N 52°25' E 004°45'0 0.0
2015-Feb-20 00:32N 52°25' E 004°45'3 3.3
2015-Feb-19 23:34N 52°27' E 004°41'3 3.0
2015-Feb-19 22:33N 52°28' E 004°36'5 4.5
2015-Feb-19 21:33N 52°28' E 004°29'6 6.0
2015-Feb-19 20:33N 52°28' E 004°19'7 7.1
2015-Feb-19 19:33N 52°29' E 004°07'6 4.7
2015-Feb-19 18:22N 52°26' E 003°59'0 0.0
2015-Feb-19 17:28N 52°27' E 003°59'0 0.0
2015-Feb-19 16:28N 52°27' E 003°59'0 0.0
2015-Feb-19 15:28N 52°27' E 003°59'0 0.0
2015-Feb-19 14:31N 52°26' E 003°59'0 0.0
2015-Feb-19 13:31N 52°27' E 003°59'0 0.1
2015-Feb-19 12:28N 52°26' E 003°59'0 0.0
2015-Feb-19 11:31N 52°26' E 003°59'0 0.1
2015-Feb-19 10:28N 52°26' E 003°59'0 0.1
2015-Feb-19 09:31N 52°26' E 003°59'0 0.0
2015-Feb-19 08:31N 52°26' E 003°59'0 0.0
2015-Feb-19 07:31N 52°26' E 003°59'0 0.0
2015-Feb-19 06:22N 52°26' E 003°59'0 0.1
2015-Feb-19 05:28N 52°27' E 003°59'0 0.0
2015-Feb-19 04:31N 52°27' E 003°59'0 0.0
2015-Feb-19 03:31N 52°27' E 003°59'0 0.0
2015-Feb-19 02:31N 52°27' E 003°59'0 0.0
2015-Feb-19 01:31N 52°26' E 003°59'0 0.0
2015-Feb-19 00:31N 52°26' E 003°59'0 0.0
2015-Feb-18 23:31N 52°26' E 003°59'0 0.1
2015-Feb-18 22:28N 52°27' E 003°59'0 0.1
2015-Feb-18 21:31N 52°26' E 003°59'0 0.0
2015-Feb-18 20:28N 52°26' E 003°59'0 0.1
2015-Feb-18 19:31N 52°26' E 003°59'0 0.0
2015-Feb-18 18:31N 52°26' E 003°59'0 0.0
2015-Feb-18 17:31N 52°27' E 003°59'0 0.0
2015-Feb-18 16:27N 52°27' E 003°59'0 0.0
2015-Feb-18 15:27N 52°27' E 003°59'0 0.0
2015-Feb-18 14:33N 52°27' E 003°59'0 0.0
2015-Feb-18 13:33N 52°26' E 003°59'0 0.0
2015-Feb-18 12:33N 52°26' E 003°59'0 0.0
2015-Feb-18 11:33N 52°26' E 003°59'0 0.1
2015-Feb-18 10:33N 52°26' E 003°59'0 0.1
2015-Feb-18 09:21N 52°26' E 003°59'0 0.0
2015-Feb-18 08:33N 52°26' E 003°59'0 0.1
2015-Feb-18 07:33N 52°26' E 003°59'0 0.1
2015-Feb-18 06:33N 52°26' E 003°59'0 0.1
2015-Feb-18 05:33N 52°26' E 003°59'0 0.0
2015-Feb-18 04:33N 52°26' E 003°59'0 0.0
2015-Feb-18 03:33N 52°26' E 003°59'0 0.0
2015-Feb-18 02:33N 52°26' E 003°59'0 0.0
2015-Feb-18 01:33N 52°26' E 003°59'0 0.0
2015-Feb-18 00:33N 52°26' E 003°59'0 0.1
2015-Feb-17 23:33N 52°26' E 003°59'0 0.1
2015-Feb-17 22:33N 52°26' E 003°59'0 0.0
2015-Feb-17 21:33N 52°26' E 003°59'0 0.0
2015-Feb-17 20:33N 52°26' E 003°59'0 0.0
2015-Feb-17 19:33N 52°26' E 003°59'0 0.1
2015-Feb-17 17:33N 52°26' E 003°59'0 0.1
2015-Feb-17 16:33N 52°26' E 003°59'0 0.0
2015-Feb-17 15:33N 52°26' E 003°59'0 0.1
2015-Feb-17 14:33N 52°26' E 003°59'0 0.0
2015-Feb-17 13:33N 52°26' E 003°59'0 0.0
2015-Feb-17 12:33N 52°26' E 003°59'0 0.1
2015-Feb-17 11:33N 52°26' E 003°59'0 0.0
2015-Feb-17 10:33N 52°26' E 003°59'0 0.0
2015-Feb-17 09:30N 52°26' E 003°59'0 0.0
2015-Feb-17 08:33N 52°26' E 003°59'0 0.0
2015-Feb-17 07:33N 52°26' E 003°59'0 0.1
2015-Feb-17 06:30N 52°26' E 003°59'0 0.1
2015-Feb-17 05:33N 52°26' E 003°59'0 0.1
2015-Feb-17 04:33N 52°26' E 003°59'0 0.0
2015-Feb-17 03:33N 52°26' E 003°59'0 0.0
2015-Feb-17 02:33N 52°26' E 003°59'0 0.0
2015-Feb-17 01:33N 52°26' E 003°59'0 0.0
2015-Feb-17 00:33N 52°26' E 003°59'0 0.0
2015-Feb-16 23:33N 52°26' E 003°59'0 0.0
2015-Feb-16 22:33N 52°26' E 003°59'0 0.2
2015-Feb-16 21:33N 52°26' E 003°59'0 0.0
2015-Feb-16 20:33N 52°26' E 003°59'0 0.0
2015-Feb-16 19:33N 52°26' E 003°59'0 0.0
2015-Feb-16 18:33N 52°26' E 003°59'0 0.2
2015-Feb-16 17:33N 52°26' E 003°59'0 0.1
2015-Feb-16 16:33N 52°26' E 003°59'0 0.0
2015-Feb-16 15:33N 52°26' E 003°59'0 0.0
2015-Feb-16 14:33N 52°26' E 003°59'0 0.0
2015-Feb-16 13:33N 52°26' E 003°59'0 0.0
2015-Feb-16 12:33N 52°26' E 003°59'0 0.0
2015-Feb-16 11:33N 52°26' E 003°59'0 0.0
2015-Feb-16 10:33N 52°26' E 003°59'0 0.1
2015-Feb-16 09:33N 52°26' E 003°59'0 0.1
2015-Feb-16 08:33N 52°26' E 003°59'0 0.0
2015-Feb-16 07:33N 52°26' E 003°59'0 0.0
2015-Feb-16 06:33N 52°26' E 003°59'0 0.0
2015-Feb-16 05:33N 52°26' E 003°59'0 0.1
2015-Feb-16 04:33N 52°26' E 003°59'0 0.1
2015-Feb-16 03:33N 52°26' E 003°59'0 0.1
2015-Feb-16 02:33N 52°26' E 003°59'0 0.1
2015-Feb-16 01:33N 52°26' E 003°59'0 0.0
2015-Feb-16 00:27N 52°26' E 003°59'0 0.0
2015-Feb-15 23:33N 52°26' E 003°59'0 0.1
2015-Feb-15 22:33N 52°26' E 003°59'0 0.1
2015-Feb-15 21:33N 52°26' E 003°58'0 0.1
2015-Feb-15 20:33N 52°26' E 003°58'0 0.0
2015-Feb-15 19:33N 52°26' E 003°58'0 0.0
2015-Feb-15 18:33N 52°26' E 003°58'0 0.0
2015-Feb-15 17:33N 52°26' E 003°58'0 0.0
2015-Feb-15 16:30N 52°26' E 003°59'0 0.0
2015-Feb-15 15:33N 52°26' E 003°58'0 0.0
2015-Feb-15 14:30N 52°26' E 003°58'0 0.1
2015-Feb-15 13:33N 52°26' E 003°58'0 0.1
2015-Feb-15 12:33N 52°26' E 003°59'0 0.0
2015-Feb-15 11:33N 52°26' E 003°58'0 0.0
2015-Feb-15 10:30N 52°26' E 003°58'0 0.1
2015-Feb-15 09:33N 52°26' E 003°58'0 0.0
2015-Feb-15 08:33N 52°26' E 003°58'0 0.0
2015-Feb-15 07:33N 52°26' E 003°58'0 0.0
2015-Feb-15 06:33N 52°26' E 003°58'0 0.0
2015-Feb-15 05:33N 52°26' E 003°58'0 0.0
2015-Feb-15 04:33N 52°26' E 003°58'0 0.0
2015-Feb-15 03:33N 52°26' E 003°59'0 0.1
2015-Feb-15 02:33N 52°26' E 003°58'0 0.1
2015-Feb-15 01:27N 52°26' E 003°59'  
Track history (hours):
 
Tides and Currents Weather Stations Pressure Air Temp Water Temp Dewpoint Dewpoint Depression Visibility Wind Speed Wind Dir Waves Ship Positions

Valle Azzurra

Last reported at 2015-Feb-25 01:24 UTC. Time now 2015-Feb-27 04:06 UTC.
Position N 50°26' W 000°29'.

Length 183 m; draft 11.2 m.

Type: Tanker. MMSI: 247226600.

Date/timePositionNaut miles runAvg speedWind from/ knotsBaromVisibWave heightAir tempDewpointWater temp
2015-Feb-25 01:24N 50°26' W 000°29'8 9.1
2015-Feb-25 00:30N 50°29' W 000°17'2210.3
2015-Feb-24 22:20N 50°35' E 000°17'912.0
2015-Feb-24 21:33N 50°37' E 000°31'1212.3
2015-Feb-24 20:33N 50°43' E 000°48'1312.2
2015-Feb-24 19:31N 50°51' E 001°04'1111.6
2015-Feb-24 18:31N 50°59' E 001°17'1010.0
2015-Feb-24 17:33N 51°05' E 001°29'9 8.9
2015-Feb-24 16:33N 51°10' E 001°40'9 9.4
2015-Feb-24 15:33N 51°18' E 001°48'1111.1
2015-Feb-24 14:33N 51°28' E 001°57'1312.7
2015-Feb-24 13:33N 51°37' E 002°10'8011.0
2015-Feb-24 06:19N 52°32' E 003°45'7 8.9
2015-Feb-24 05:33N 52°32' E 003°56'9 9.3
2015-Feb-24 04:33N 52°31' E 004°11'9 9.2
2015-Feb-24 03:33N 52°29' E 004°26'6 6.5
2015-Feb-24 02:33N 52°28' E 004°37'2 1.6
2015-Feb-24 01:33N 52°28' E 004°39'4 4.3
2015-Feb-24 00:32N 52°25' E 004°45'0 0.0
2015-Feb-23 23:32N 52°25' E 004°45'0 0.0
2015-Feb-23 22:32N 52°25' E 004°45'0 0.0
2015-Feb-23 21:32N 52°25' E 004°45'0 0.0
2015-Feb-23 20:32N 52°25' E 004°45'0 0.0
2015-Feb-23 19:32N 52°25' E 004°45'0 0.0
2015-Feb-23 18:32N 52°25' E 004°45'0 0.0
2015-Feb-23 17:32N 52°25' E 004°45'0 0.0
2015-Feb-23 16:32N 52°25' E 004°45'0 0.0
2015-Feb-23 15:32N 52°25' E 004°45'0 0.0
2015-Feb-23 14:32N 52°25' E 004°45'0 0.0
2015-Feb-23 13:32N 52°25' E 004°45'0 0.0
2015-Feb-23 12:32N 52°25' E 004°45'0 0.0
2015-Feb-23 11:33N 52°25' E 004°45'0 0.0
2015-Feb-23 10:32N 52°25' E 004°45'0 0.0
2015-Feb-23 09:32N 52°25' E 004°45'0 0.0
2015-Feb-23 08:32N 52°25' E 004°45'0 0.0
2015-Feb-23 07:32N 52°25' E 004°45'0 0.0
2015-Feb-23 06:32N 52°25' E 004°45'0 0.0
2015-Feb-23 05:32N 52°25' E 004°45'0 0.0
2015-Feb-23 04:32N 52°25' E 004°45'0 0.0
2015-Feb-23 03:32N 52°25' E 004°45'0 0.0
2015-Feb-23 02:32N 52°25' E 004°45'0 0.0
2015-Feb-23 01:32N 52°25' E 004°45'0 0.0
2015-Feb-23 00:32N 52°25' E 004°45'0 0.0
2015-Feb-22 23:32N 52°25' E 004°45'0 0.0
2015-Feb-22 22:32N 52°25' E 004°45'0 0.0
2015-Feb-22 21:32N 52°25' E 004°45'0 0.0
2015-Feb-22 20:32N 52°25' E 004°45'0 0.4
2015-Feb-22 19:32N 52°25' E 004°45'0 0.0
2015-Feb-22 18:32N 52°25' E 004°45'0 0.0
2015-Feb-22 17:32N 52°25' E 004°45'0 0.0
2015-Feb-22 16:26N 52°25' E 004°45'0 0.0
2015-Feb-22 15:32N 52°25' E 004°45'0 0.0
2015-Feb-22 14:32N 52°25' E 004°45'0 0.0
2015-Feb-22 13:32N 52°25' E 004°45'0 0.0
2015-Feb-22 12:32N 52°25' E 004°45'0 0.0
2015-Feb-22 11:32N 52°25' E 004°45'0 0.0
2015-Feb-22 10:32N 52°25' E 004°45'0 0.0
2015-Feb-22 09:32N 52°25' E 004°45'0 0.0
2015-Feb-22 08:32N 52°25' E 004°45'0 0.0
2015-Feb-22 07:32N 52°25' E 004°45'0 0.0
2015-Feb-22 06:29N 52°25' E 004°45'0 0.0
2015-Feb-22 05:32N 52°25' E 004°45'0 0.0
2015-Feb-22 04:32N 52°25' E 004°45'0 0.0
2015-Feb-22 03:32N 52°25' E 004°45'0 0.0
2015-Feb-22 02:32N 52°25' E 004°45'0 0.0
2015-Feb-22 01:29N 52°25' E 004°45'0 0.0
2015-Feb-22 00:32N 52°25' E 004°45'0 0.0
2015-Feb-21 23:32N 52°25' E 004°45'0 0.0
2015-Feb-21 22:33N 52°25' E 004°45'0 0.0
2015-Feb-21 21:32N 52°25' E 004°45'0 0.0
2015-Feb-21 20:32N 52°25' E 004°45'0 0.0
2015-Feb-21 19:32N 52°25' E 004°45'0 0.0
2015-Feb-21 18:32N 52°25' E 004°45'0 0.0
2015-Feb-21 17:32N 52°25' E 004°45'0 0.0
2015-Feb-21 16:32N 52°25' E 004°45'0 0.0
2015-Feb-21 15:32N 52°25' E 004°45'0 0.0
2015-Feb-21 14:32N 52°25' E 004°45'0 0.0
2015-Feb-21 13:32N 52°25' E 004°45'0 0.0
2015-Feb-21 12:32N 52°25' E 004°45'0 0.0
2015-Feb-21 11:32N 52°25' E 004°45'0 0.0
2015-Feb-21 10:32N 52°25' E 004°45'0 0.0
2015-Feb-21 09:32N 52°25' E 004°45'0 0.0
2015-Feb-21 08:32N 52°25' E 004°45'0 0.0
2015-Feb-21 07:32N 52°25' E 004°45'0 0.0
2015-Feb-21 06:30N 52°25' E 004°45'0 0.0
2015-Feb-21 05:32N 52°25' E 004°45'0 0.0
2015-Feb-21 04:32N 52°25' E 004°45'0 0.0
2015-Feb-21 03:32N 52°25' E 004°45'0 0.0
2015-Feb-21 02:32N 52°25' E 004°45'0 0.0
2015-Feb-21 01:32N 52°25' E 004°45'0 0.0
2015-Feb-21 00:33N 52°25' E 004°45'0 0.0
2015-Feb-20 23:32N 52°25' E 004°45'0 0.0
2015-Feb-20 22:32N 52°25' E 004°45'0 0.0
2015-Feb-20 21:29N 52°25' E 004°45'0 0.0
2015-Feb-20 20:33N 52°25' E 004°45'0 0.0
2015-Feb-20 19:32N 52°25' E 004°45'0 0.0
2015-Feb-20 18:32N 52°25' E 004°45'0 0.0
2015-Feb-20 17:32N 52°25' E 004°45'0 0.0
2015-Feb-20 16:32N 52°25' E 004°45'0 0.0
2015-Feb-20 15:32N 52°25' E 004°45'0 0.0
2015-Feb-20 14:32N 52°25' E 004°45'0 0.0
2015-Feb-20 13:32N 52°25' E 004°45'0 0.0
2015-Feb-20 12:32N 52°25' E 004°45'0 0.0
2015-Feb-20 11:32N 52°25' E 004°45'0 0.0
2015-Feb-20 10:29N 52°25' E 004°45'0 0.0
2015-Feb-20 09:32N 52°25' E 004°45'0 0.0
2015-Feb-20 08:32N 52°25' E 004°45'0 0.0
2015-Feb-20 07:32N 52°25' E 004°45'0 0.0
2015-Feb-20 06:29N 52°25' E 004°45'0 0.0
2015-Feb-20 05:32N 52°25' E 004°45'0 0.0
2015-Feb-20 04:32N 52°25' E 004°45'0 0.0
2015-Feb-20 03:32N 52°25' E 004°45'0 0.0
2015-Feb-20 02:32N 52°25' E 004°45'0 0.0
2015-Feb-20 01:32N 52°25' E 004°45'0 0.0
2015-Feb-20 00:32N 52°25' E 004°45'3 3.3
2015-Feb-19 23:34N 52°27' E 004°41'3 3.0
2015-Feb-19 22:33N 52°28' E 004°36'5 4.5
2015-Feb-19 21:33N 52°28' E 004°29'6 6.0
2015-Feb-19 20:33N 52°28' E 004°19'7 7.1
2015-Feb-19 19:33N 52°29' E 004°07'6 4.7
2015-Feb-19 18:22N 52°26' E 003°59'0 0.0
2015-Feb-19 17:28N 52°27' E 003°59'0 0.0
2015-Feb-19 16:28N 52°27' E 003°59'0 0.0
2015-Feb-19 15:28N 52°27' E 003°59'0 0.0
2015-Feb-19 14:31N 52°26' E 003°59'0 0.0
2015-Feb-19 13:31N 52°27' E 003°59'0 0.1
2015-Feb-19 12:28N 52°26' E 003°59'0 0.0
2015-Feb-19 11:31N 52°26' E 003°59'0 0.1
2015-Feb-19 10:28N 52°26' E 003°59'0 0.1
2015-Feb-19 09:31N 52°26' E 003°59'0 0.0
2015-Feb-19 08:31N 52°26' E 003°59'0 0.0
2015-Feb-19 07:31N 52°26' E 003°59'0 0.0
2015-Feb-19 06:22N 52°26' E 003°59'0 0.1
2015-Feb-19 05:28N 52°27' E 003°59'0 0.0
2015-Feb-19 04:31N 52°27' E 003°59'0 0.0
2015-Feb-19 03:31N 52°27' E 003°59'0 0.0
2015-Feb-19 02:31N 52°27' E 003°59'0 0.0
2015-Feb-19 01:31N 52°26' E 003°59'0 0.0
2015-Feb-19 00:31N 52°26' E 003°59'0 0.0
2015-Feb-18 23:31N 52°26' E 003°59'0 0.1
2015-Feb-18 22:28N 52°27' E 003°59'0 0.1
2015-Feb-18 21:31N 52°26' E 003°59'0 0.0
2015-Feb-18 20:28N 52°26' E 003°59'0 0.1
2015-Feb-18 19:31N 52°26' E 003°59'0 0.0
2015-Feb-18 18:31N 52°26' E 003°59'0 0.0
2015-Feb-18 17:31N 52°27' E 003°59'0 0.0
2015-Feb-18 16:27N 52°27' E 003°59'0 0.0
2015-Feb-18 15:27N 52°27' E 003°59'0 0.0
2015-Feb-18 14:33N 52°27' E 003°59'0 0.0
2015-Feb-18 13:33N 52°26' E 003°59'0 0.0
2015-Feb-18 12:33N 52°26' E 003°59'0 0.0
2015-Feb-18 11:33N 52°26' E 003°59'0 0.1
2015-Feb-18 10:33N 52°26' E 003°59'0 0.1
2015-Feb-18 09:21N 52°26' E 003°59'0 0.0
2015-Feb-18 08:33N 52°26' E 003°59'0 0.1
2015-Feb-18 07:33N 52°26' E 003°59'0 0.1
2015-Feb-18 06:33N 52°26' E 003°59'0 0.1
2015-Feb-18 05:33N 52°26' E 003°59'0 0.0
2015-Feb-18 04:33N 52°26' E 003°59'0 0.0
2015-Feb-18 03:33N 52°26' E 003°59'0 0.0
2015-Feb-18 02:33N 52°26' E 003°59'0 0.0
2015-Feb-18 01:33N 52°26' E 003°59'0 0.0
2015-Feb-18 00:33N 52°26' E 003°59'0 0.1
2015-Feb-17 23:33N 52°26' E 003°59'0 0.1
2015-Feb-17 22:33N 52°26' E 003°59'0 0.0
2015-Feb-17 21:33N 52°26' E 003°59'0 0.0
2015-Feb-17 20:33N 52°26' E 003°59'0 0.0
2015-Feb-17 19:33N 52°26' E 003°59'0 0.1
2015-Feb-17 17:33N 52°26' E 003°59'0 0.1
2015-Feb-17 16:33N 52°26' E 003°59'0 0.0
2015-Feb-17 15:33N 52°26' E 003°59'0 0.1
2015-Feb-17 14:33N 52°26' E 003°59'0 0.0
2015-Feb-17 13:33N 52°26' E 003°59'0 0.0
2015-Feb-17 12:33N 52°26' E 003°59'0 0.1
2015-Feb-17 11:33N 52°26' E 003°59'0 0.0
2015-Feb-17 10:33N 52°26' E 003°59'0 0.0
2015-Feb-17 09:30N 52°26' E 003°59'0 0.0
2015-Feb-17 08:33N 52°26' E 003°59'0 0.0
2015-Feb-17 07:33N 52°26' E 003°59'0 0.1
2015-Feb-17 06:30N 52°26' E 003°59'0 0.1
2015-Feb-17 05:33N 52°26' E 003°59'0 0.1
2015-Feb-17 04:33N 52°26' E 003°59'0 0.0
2015-Feb-17 03:33N 52°26' E 003°59'0 0.0
2015-Feb-17 02:33N 52°26' E 003°59'0 0.0
2015-Feb-17 01:33N 52°26' E 003°59'0 0.0
2015-Feb-17 00:33N 52°26' E 003°59'0 0.0
2015-Feb-16 23:33N 52°26' E 003°59'0 0.0
2015-Feb-16 22:33N 52°26' E 003°59'0 0.2
2015-Feb-16 21:33N 52°26' E 003°59'0 0.0
2015-Feb-16 20:33N 52°26' E 003°59'0 0.0
2015-Feb-16 19:33N 52°26' E 003°59'0 0.0
2015-Feb-16 18:33N 52°26' E 003°59'0 0.2
2015-Feb-16 17:33N 52°26' E 003°59'0 0.1
2015-Feb-16 16:33N 52°26' E 003°59'0 0.0
2015-Feb-16 15:33N 52°26' E 003°59'0 0.0
2015-Feb-16 14:33N 52°26' E 003°59'0 0.0
2015-Feb-16 13:33N 52°26' E 003°59'0 0.0
2015-Feb-16 12:33N 52°26' E 003°59'0 0.0
2015-Feb-16 11:33N 52°26' E 003°59'0 0.0
2015-Feb-16 10:33N 52°26' E 003°59'0 0.1
2015-Feb-16 09:33N 52°26' E 003°59'0 0.1
2015-Feb-16 08:33N 52°26' E 003°59'0 0.0
2015-Feb-16 07:33N 52°26' E 003°59'0 0.0
2015-Feb-16 06:33N 52°26' E 003°59'0 0.0
2015-Feb-16 05:33N 52°26' E 003°59'0 0.1
2015-Feb-16 04:33N 52°26' E 003°59'0 0.1
2015-Feb-16 03:33N 52°26' E 003°59'0 0.1
2015-Feb-16 02:33N 52°26' E 003°59'0 0.1
2015-Feb-16 01:33N 52°26' E 003°59'0 0.0
2015-Feb-16 00:27N 52°26' E 003°59'0 0.0
2015-Feb-15 23:33N 52°26' E 003°59'0 0.1
2015-Feb-15 22:33N 52°26' E 003°59'0 0.1
2015-Feb-15 21:33N 52°26' E 003°58'0 0.1
2015-Feb-15 20:33N 52°26' E 003°58'0 0.0
2015-Feb-15 19:33N 52°26' E 003°58'0 0.0
2015-Feb-15 18:33N 52°26' E 003°58'0 0.0
2015-Feb-15 17:33N 52°26' E 003°58'0 0.0
2015-Feb-15 16:30N 52°26' E 003°59'0 0.0
2015-Feb-15 15:33N 52°26' E 003°58'0 0.0
2015-Feb-15 14:30N 52°26' E 003°58'0 0.1
2015-Feb-15 13:33N 52°26' E 003°58'0 0.1
2015-Feb-15 12:33N 52°26' E 003°59'0 0.0
2015-Feb-15 11:33N 52°26' E 003°58'0 0.0
2015-Feb-15 10:30N 52°26' E 003°58'0 0.1
2015-Feb-15 09:33N 52°26' E 003°58'0 0.0
2015-Feb-15 08:33N 52°26' E 003°58'0 0.0
2015-Feb-15 07:33N 52°26' E 003°58'0 0.0
2015-Feb-15 06:33N 52°26' E 003°58'0 0.0
2015-Feb-15 05:33N 52°26' E 003°58'0 0.0
2015-Feb-15 04:33N 52°26' E 003°58'0 0.0
2015-Feb-15 03:33N 52°26' E 003°59'0 0.1
2015-Feb-15 02:33N 52°26' E 003°58'0 0.1
2015-Feb-15 01:27N 52°26' E 003°59'  

Dump ship's entire track history